createdAt,value
2023-05-02T00:02:38.668Z,92765.09
2023-05-02T00:05:23.251Z,92767.97
2023-05-02T00:08:06.502Z,92770.56
2023-05-02T00:10:49.481Z,92758.47
2023-05-02T00:13:32.466Z,92758.66
2023-05-02T00:16:15.594Z,92760.44
2023-05-02T00:18:58.626Z,92759.78
2023-05-02T00:21:42.930Z,92765.25
2023-05-02T00:24:26.963Z,92762.03
2023-05-02T00:27:09.997Z,92757.03
2023-05-02T00:29:53.454Z,92754.63
2023-05-02T00:32:36.594Z,92754.63
2023-05-02T00:35:19.726Z,92748.66
2023-05-02T00:38:04.070Z,92750.28
2023-05-02T00:40:48.009Z,92758.00
2023-05-02T00:43:32.159Z,92748.50
2023-05-02T00:46:15.780Z,92753.66
2023-05-02T00:48:58.749Z,92758.00
2023-05-02T00:51:41.680Z,92762.34
2023-05-02T00:54:26.010Z,92758.16
2023-05-02T00:57:08.962Z,92759.94
2023-05-02T00:59:52.373Z,92753.97
2023-05-02T01:02:44.639Z,92760.72
2023-05-02T01:05:34.812Z,92763.31
2023-05-02T01:08:27.664Z,92761.88
2023-05-02T01:11:17.507Z,92766.38
2023-05-02T01:14:04.696Z,92763.97
2023-05-02T01:16:49.684Z,92768.28
2023-05-02T01:19:36.678Z,92770.06
2023-05-02T01:22:20.990Z,92768.47
2023-05-02T01:25:15.634Z,92775.38
2023-05-02T01:28:18.980Z,92767.81
2023-05-02T01:31:05.572Z,92774.72
2023-05-02T01:33:50.074Z,92772.31
2023-05-02T01:36:36.275Z,92775.06
2023-05-02T01:39:21.912Z,92784.53
2023-05-02T01:42:06.621Z,92785.50
2023-05-02T01:44:50.747Z,92781.50
2023-05-02T01:47:37.579Z,92787.59
2023-05-02T01:50:25.186Z,92779.06
2023-05-02T01:53:13.847Z,92789.22
2023-05-02T01:55:59.235Z,92784.84
2023-05-02T01:58:43.141Z,92791.47
2023-05-02T02:01:28.984Z,92797.28
2023-05-02T02:04:15.915Z,92793.88
2023-05-02T02:07:07.547Z,92796.28
2023-05-02T02:09:50.924Z,92797.91
2023-05-02T02:12:39.794Z,92799.69
2023-05-02T02:15:28.774Z,92799.19
2023-05-02T02:18:14.905Z,92793.06
2023-05-02T02:21:00.984Z,92800.44
2023-05-02T02:23:46.337Z,92804.47
2023-05-02T02:26:29.254Z,92806.72
2023-05-02T02:29:12.501Z,92804.44
2023-05-02T02:31:56.197Z,92801.84
2023-05-02T02:34:39.235Z,92803.22
2023-05-02T02:37:31.219Z,92802.34
2023-05-02T02:40:20.324Z,92808.25
2023-05-02T02:43:10.918Z,92806.88
2023-05-02T02:46:05.233Z,92801.84
2023-05-02T02:48:56.768Z,92809.22
2023-05-02T02:51:45.782Z,92807.75
2023-05-02T02:54:36.551Z,92812.25
2023-05-02T02:57:27.934Z,92807.84
2023-05-02T03:00:17.522Z,92807.34
2023-05-02T03:03:01.922Z,92799.94
2023-05-02T03:05:45.555Z,92806.03
2023-05-02T03:08:28.613Z,92805.41
2023-05-02T03:11:13.517Z,92814.84
2023-05-02T03:13:56.797Z,92820.16
2023-05-02T03:16:41.553Z,92823.81
2023-05-02T03:19:29.357Z,92829.91
2023-05-02T03:22:13.331Z,92826.84
2023-05-02T03:24:56.283Z,92818.75
2023-05-02T03:27:41.069Z,92821.00
2023-05-02T03:30:26.543Z,92828.03
2023-05-02T03:33:09.764Z,92825.75
2023-05-02T03:35:54.052Z,92834.56
2023-05-02T03:38:37.299Z,92829.72
2023-05-02T03:41:24.902Z,92835.16
2023-05-02T03:44:16.688Z,92834.66
2023-05-02T03:46:59.975Z,92834.94
2023-05-02T03:49:43.525Z,92841.47
2023-05-02T03:52:27.442Z,92845.56
2023-05-02T03:55:11.453Z,92837.38
2023-05-02T03:57:54.729Z,92837.22
2023-05-02T04:00:39.832Z,92844.91
2023-05-02T04:03:26.216Z,92845.72
2023-05-02T04:06:10.502Z,92851.59
2023-05-02T04:08:53.795Z,92857.69
2023-05-02T04:11:36.950Z,92859.06
2023-05-02T04:14:21.882Z,92857.59
2023-05-02T04:17:09.057Z,92863.66
2023-05-02T04:20:05.532Z,92860.97
2023-05-02T04:22:50.834Z,92868.38
2023-05-02T04:25:33.839Z,92870.50
2023-05-02T04:28:19.442Z,92874.53
2023-05-02T04:31:03.316Z,92879.53
2023-05-02T04:33:49.913Z,92881.97
2023-05-02T04:36:37.375Z,92892.72
2023-05-02T04:39:20.826Z,92895.03
2023-05-02T04:42:17.372Z,92895.69
2023-05-02T04:45:13.961Z,92896.19
2023-05-02T04:47:59.238Z,92903.47
2023-05-02T04:50:43.533Z,92906.69
2023-05-02T04:53:26.694Z,92909.13
2023-05-02T04:56:09.749Z,92909.91
2023-05-02T04:58:54.187Z,92914.75
2023-05-02T05:01:38.912Z,92913.66
2023-05-02T05:04:24.151Z,92918.78
2023-05-02T05:07:08.641Z,92925.41
2023-05-02T05:09:53.290Z,92929.44
2023-05-02T05:12:39.922Z,92929.31
2023-05-02T05:15:25.542Z,92938.47
2023-05-02T05:18:12.539Z,92929.00
2023-05-02T05:20:55.833Z,92939.94
2023-05-02T05:23:40.175Z,92942.06
2023-05-02T05:26:25.347Z,92947.19
2023-05-02T05:29:08.944Z,92951.25
2023-05-02T05:31:56.437Z,92955.91
2023-05-02T05:34:39.674Z,92951.53
2023-05-02T05:37:22.843Z,92953.16
2023-05-02T05:40:09.388Z,92953.81
2023-05-02T05:42:53.725Z,92950.97
2023-05-02T05:45:44.064Z,92959.03
2023-05-02T05:48:27.566Z,92963.09
2023-05-02T05:51:10.592Z,92963.09
2023-05-02T05:53:53.572Z,92965.22
2023-05-02T05:56:38.560Z,92964.59
2023-05-02T05:59:28.954Z,92973.63
2023-05-02T06:02:12.047Z,92977.38
2023-05-02T06:04:56.037Z,92976.63
2023-05-02T06:07:40.962Z,92979.75
2023-05-02T06:10:24.358Z,92982.03
2023-05-02T06:13:09.554Z,92988.16
2023-05-02T06:15:56.635Z,92989.50
2023-05-02T06:18:40.267Z,92984.06
2023-05-02T06:21:23.591Z,92990.50
2023-05-02T06:24:07.257Z,92983.16
2023-05-02T06:26:51.714Z,92991.06
2023-05-02T06:29:36.290Z,92998.19
2023-05-02T06:32:19.230Z,93004.50
2023-05-02T06:35:02.304Z,93004.06
2023-05-02T06:37:45.364Z,93006.69
2023-05-02T06:40:28.349Z,93013.78
2023-05-02T06:43:11.268Z,93012.28
2023-05-02T06:45:56.429Z,93007.31
2023-05-02T06:48:39.418Z,93016.19
2023-05-02T06:51:22.685Z,93011.72
2023-05-02T06:54:05.596Z,93018.56
2023-05-02T06:56:48.664Z,93021.97
2023-05-02T06:59:31.644Z,93027.63
2023-05-02T07:02:16.104Z,93018.47
2023-05-02T07:04:58.991Z,93028.66
2023-05-02T07:07:42.339Z,93022.56
2023-05-02T07:10:25.378Z,93035.47
2023-05-02T07:13:08.448Z,93037.75
2023-05-02T07:15:51.433Z,93029.91
2023-05-02T07:18:37.427Z,93034.13
2023-05-02T07:21:20.409Z,93036.72
2023-05-02T07:24:03.391Z,93036.72
2023-05-02T07:26:47.147Z,93038.03
2023-05-02T07:29:30.191Z,93043.69
2023-05-02T07:32:20.386Z,93037.91
2023-05-02T07:35:11.022Z,93046.28
2023-05-02T07:37:55.491Z,93043.09
2023-05-02T07:40:39.520Z,93045.34
2023-05-02T07:43:22.825Z,93049.84
2023-05-02T07:46:06.819Z,93049.22
2023-05-02T07:48:49.934Z,93045.50
2023-05-02T07:51:34.450Z,93056.63
2023-05-02T07:54:18.074Z,93049.69
2023-05-02T07:57:03.453Z,93052.75
2023-05-02T07:59:46.447Z,93058.69
2023-05-02T08:02:29.888Z,93059.50
2023-05-02T08:05:13.315Z,93060.94
2023-05-02T08:07:57.731Z,93059.47
2023-05-02T08:10:40.687Z,93059.13
2023-05-02T08:13:24.454Z,93060.06
2023-05-02T08:16:08.795Z,93057.16
2023-05-02T08:18:51.789Z,93061.66
2023-05-02T08:21:35.347Z,93058.56
2023-05-02T08:24:19.737Z,93065.38
2023-05-02T08:27:04.438Z,93063.41
2023-05-02T08:29:48.096Z,93056.47
2023-05-02T08:32:31.215Z,93058.38
2023-05-02T08:35:14.363Z,93066.28
2023-05-02T08:37:58.446Z,93066.72
2023-05-02T08:40:43.429Z,93071.28
2023-05-02T08:43:26.820Z,93076.59
2023-05-02T08:46:12.480Z,93072.72
2023-05-02T08:48:59.514Z,93077.41
2023-05-02T08:51:45.286Z,93072.81
2023-05-02T08:54:29.483Z,93080.25
2023-05-02T08:57:13.981Z,93082.97
2023-05-02T08:59:57.026Z,93082.50
2023-05-02T09:02:51.678Z,93078.75
2023-05-02T09:05:40.868Z,93089.91
2023-05-02T09:08:25.226Z,93092.31
2023-05-02T09:11:10.456Z,93087.44
2023-05-02T09:13:54.971Z,93092.56
2023-05-02T09:16:40.651Z,93098.84
2023-05-02T09:19:27.136Z,93100.75
2023-05-02T09:22:10.116Z,93108.94
2023-05-02T09:24:55.684Z,93109.06
2023-05-02T09:27:53.479Z,93106.75
2023-05-02T09:30:38.087Z,93107.97
2023-05-02T09:33:28.159Z,93107.47
2023-05-02T09:36:14.664Z,93101.56
2023-05-02T09:39:11.494Z,93118.22
2023-05-02T09:41:55.174Z,93113.78
2023-05-02T09:44:39.481Z,93110.81
2023-05-02T09:47:27.709Z,93116.00
2023-05-02T09:50:11.594Z,93117.72
2023-05-02T09:53:02.983Z,93121.44
2023-05-02T09:55:46.017Z,93121.91
2023-05-02T09:58:30.898Z,93120.72
2023-05-02T10:01:17.446Z,93127.72
2023-05-02T10:04:02.113Z,93130.56
2023-05-02T10:06:46.515Z,93125.03
2023-05-02T10:09:33.492Z,93129.25
2023-05-02T10:12:17.650Z,93133.25
2023-05-02T10:15:04.579Z,93123.09
2023-05-02T10:17:50.653Z,93132.13
2023-05-02T10:20:37.268Z,93130.97
2023-05-02T10:23:21.219Z,93128.13
2023-05-02T10:26:04.452Z,93130.63
2023-05-02T10:28:48.897Z,93125.53
2023-05-02T10:31:35.611Z,93121.59
2023-05-02T10:34:20.126Z,93124.66
2023-05-02T10:37:04.516Z,93121.69
2023-05-02T10:39:47.736Z,93120.63
2023-05-02T10:42:31.921Z,93121.34
2023-05-02T10:45:31.910Z,93119.63
2023-05-02T10:48:17.133Z,93121.16
2023-05-02T10:51:01.872Z,93117.84
2023-05-02T10:53:48.206Z,93118.00
2023-05-02T10:56:31.219Z,93116.94
2023-05-02T10:59:28.749Z,93124.88
2023-05-02T11:02:48.941Z,93123.69
2023-05-02T11:05:37.091Z,93128.53
2023-05-02T11:08:32.215Z,93121.84
2023-05-02T11:11:33.792Z,93122.34
2023-05-02T11:14:47.691Z,93127.66
2023-05-02T11:18:02.638Z,93122.34
2023-05-02T11:20:46.732Z,93121.09
2023-05-02T11:23:29.655Z,93118.91
2023-05-02T11:26:23.317Z,93116.22
2023-05-02T11:29:07.285Z,93114.56
2023-05-02T11:32:00.369Z,93120.75
2023-05-02T11:34:45.021Z,93120.31
2023-05-02T11:37:28.803Z,93120.13
2023-05-02T11:40:12.549Z,93126.94
2023-05-02T11:42:56.504Z,93129.28
2023-05-02T11:45:42.620Z,93128.66
2023-05-02T11:48:28.362Z,93139.47
2023-05-02T11:51:11.540Z,93141.28
2023-05-02T11:53:54.723Z,93151.03
2023-05-02T11:56:37.660Z,93156.66
2023-05-02T11:59:20.752Z,93169.28
2023-05-02T12:02:03.900Z,93166.63
2023-05-02T12:04:48.440Z,93182.63
2023-05-02T12:07:38.968Z,93188.13
2023-05-02T12:10:22.094Z,93193.56
2023-05-02T12:13:06.595Z,93197.19
2023-05-02T12:15:52.073Z,93200.66
2023-05-02T12:18:35.323Z,93206.50
2023-05-02T12:21:21.069Z,93209.59
2023-05-02T12:24:04.733Z,93210.91
2023-05-02T12:26:49.366Z,93209.47
2023-05-02T12:29:40.884Z,93212.06
2023-05-02T12:32:30.314Z,93218.16
2023-05-02T12:35:24.034Z,93215.59
2023-05-02T12:38:14.570Z,93212.84
2023-05-02T12:41:01.649Z,93215.84
2023-05-02T12:43:47.302Z,93213.75
2023-05-02T12:46:31.997Z,93211.66
2023-05-02T12:49:16.296Z,93203.75
2023-05-02T12:52:00.560Z,93211.00
2023-05-02T12:54:46.511Z,93204.38
2023-05-02T12:57:30.327Z,93206.16
2023-05-02T13:00:15.057Z,93209.03
2023-05-02T13:02:58.671Z,93202.91
2023-05-02T13:05:41.780Z,93213.28
2023-05-02T13:08:25.368Z,93211.81
2023-05-02T13:11:09.835Z,93211.34
2023-05-02T13:13:52.905Z,93204.13
2023-05-02T13:16:37.346Z,93209.47
2023-05-02T13:19:20.535Z,93199.50
2023-05-02T13:22:03.627Z,93204.22
2023-05-02T13:24:47.317Z,93200.84
2023-05-02T13:27:31.735Z,93197.31
2023-05-02T13:30:14.886Z,93203.13
2023-05-02T13:32:59.606Z,93201.38
2023-05-02T13:35:42.465Z,93205.56
2023-05-02T13:38:25.594Z,93202.03
2023-05-02T13:41:09.587Z,93206.38
2023-05-02T13:43:54.196Z,93204.97
2023-05-02T13:46:38.453Z,93210.28
2023-05-02T13:49:22.469Z,93201.22
2023-05-02T13:52:05.624Z,93204.94
2023-05-02T13:54:49.587Z,93195.09
2023-05-02T13:57:32.682Z,93198.50
2023-05-02T14:00:17.916Z,93197.69
2023-05-02T14:03:01.184Z,93200.91
2023-05-02T14:05:45.607Z,93208.50
2023-05-02T14:08:28.572Z,93210.44
2023-05-02T14:11:12.590Z,93212.69
2023-05-02T14:13:58.362Z,93209.31
2023-05-02T14:16:42.810Z,93219.16
2023-05-02T14:19:26.048Z,93214.00
2023-05-02T14:22:09.112Z,93217.53
2023-05-02T14:24:52.151Z,93217.38
2023-05-02T14:27:35.485Z,93210.75
2023-05-02T14:30:18.928Z,93209.44
2023-05-02T14:33:03.396Z,93211.06
2023-05-02T14:35:47.613Z,93213.16
2023-05-02T14:38:30.770Z,93218.84
2023-05-02T14:41:14.587Z,93215.63
2023-05-02T14:43:57.569Z,93222.41
2023-05-02T14:46:41.658Z,93227.22
2023-05-02T14:49:26.499Z,93221.09
2023-05-02T14:52:09.865Z,93222.38
2023-05-02T14:54:53.181Z,93218.66
2023-05-02T14:57:36.327Z,93222.72
2023-05-02T15:00:19.701Z,93221.44
2023-05-02T15:03:04.481Z,93220.47
2023-05-02T15:05:51.147Z,93223.84
2023-05-02T15:08:34.212Z,93225.66
2023-05-02T15:11:17.514Z,93223.69
2023-05-02T15:14:01.650Z,93230.81
2023-05-02T15:16:44.868Z,93236.44
2023-05-02T15:19:28.193Z,93242.09
2023-05-02T15:22:12.658Z,93248.50
2023-05-02T15:24:55.669Z,93255.22
2023-05-02T15:27:38.933Z,93262.94
2023-05-02T15:30:23.518Z,93275.34
2023-05-02T15:33:06.573Z,93270.00
2023-05-02T15:35:58.385Z,93269.47
2023-05-02T15:38:43.319Z,93267.34
2023-05-02T15:41:26.860Z,93278.22
2023-05-02T15:44:09.832Z,93282.84
2023-05-02T15:46:52.901Z,93270.88
2023-05-02T15:49:35.985Z,93279.19
2023-05-02T15:52:19.144Z,93293.03
2023-05-02T15:55:04.069Z,93291.03
2023-05-02T15:57:47.297Z,93288.03
2023-05-02T16:00:30.548Z,93281.22
2023-05-02T16:03:15.525Z,93268.91
2023-05-02T16:05:59.364Z,93259.34
2023-05-02T16:08:42.746Z,93259.50
2023-05-02T16:11:27.092Z,93267.75
2023-05-02T16:14:10.186Z,93267.59
2023-05-02T16:16:53.174Z,93265.66
2023-05-02T16:19:36.654Z,93264.59
2023-05-02T16:22:20.527Z,93269.56
2023-05-02T16:25:04.401Z,93271.34
2023-05-02T16:27:48.856Z,93274.31
2023-05-02T16:30:31.949Z,93276.13
2023-05-02T16:33:15.388Z,93278.81
2023-05-02T16:36:02.548Z,93278.50
2023-05-02T16:38:46.442Z,93282.59
2023-05-02T16:41:30.346Z,93283.31
2023-05-02T16:44:14.565Z,93278.50
2023-05-02T16:46:58.594Z,93287.66
2023-05-02T16:49:41.547Z,93281.50
2023-05-02T16:52:24.856Z,93288.47
2023-05-02T16:55:08.863Z,93279.41
2023-05-02T16:57:51.765Z,93280.75
2023-05-02T17:00:36.670Z,93283.41
2023-05-02T17:03:19.706Z,93280.28
2023-05-02T17:06:02.951Z,93282.56
2023-05-02T17:08:46.233Z,93286.59
2023-05-02T17:11:29.089Z,93285.22
2023-05-02T17:14:13.642Z,93287.34
2023-05-02T17:16:57.971Z,93289.53
2023-05-02T17:19:42.958Z,93296.94
2023-05-02T17:22:26.190Z,93292.16
2023-05-02T17:25:10.808Z,93299.59
2023-05-02T17:27:53.742Z,93302.88
2023-05-02T17:30:37.002Z,93308.53
2023-05-02T17:33:21.479Z,93300.66
2023-05-02T17:36:05.307Z,93305.53
2023-05-02T17:38:48.204Z,93308.66
2023-05-02T17:41:31.634Z,93314.44
2023-05-02T17:44:15.781Z,93321.88
2023-05-02T17:46:59.141Z,93323.50
2023-05-02T17:49:43.438Z,93326.06
2023-05-02T17:52:26.340Z,93331.22
2023-05-02T17:55:10.056Z,93332.03
2023-05-02T17:57:53.046Z,93336.09
2023-05-02T18:00:35.966Z,93334.31
2023-05-02T18:03:18.905Z,93346.09
2023-05-02T18:06:03.332Z,93346.09
2023-05-02T18:08:46.744Z,93346.94
2023-05-02T18:11:29.801Z,93346.03
2023-05-02T18:14:12.696Z,93346.19
2023-05-02T18:16:56.459Z,93352.03
2023-05-02T18:19:39.512Z,93347.81
2023-05-02T18:22:23.813Z,93352.81
2023-05-02T18:25:07.316Z,93359.47
2023-05-02T18:27:51.298Z,93357.56
2023-05-02T18:30:37.255Z,93353.38
2023-05-02T18:33:20.672Z,93355.09
2023-05-02T18:36:03.685Z,93357.84
2023-05-02T18:38:48.195Z,93360.41
2023-05-02T18:41:31.090Z,93360.25
2023-05-02T18:44:14.310Z,93372.34
2023-05-02T18:46:57.572Z,93376.81
2023-05-02T18:49:41.700Z,93380.72
2023-05-02T18:52:24.668Z,93378.00
2023-05-02T18:55:09.476Z,93387.47
2023-05-02T18:57:52.477Z,93390.19
2023-05-02T19:00:37.221Z,93395.50
2023-05-02T19:03:20.760Z,93392.25
2023-05-02T19:06:04.363Z,93396.72
2023-05-02T19:08:47.693Z,93403.94
2023-05-02T19:11:31.935Z,93409.19
2023-05-02T19:14:14.880Z,93416.53
2023-05-02T19:16:57.780Z,93414.94
2023-05-02T19:19:41.765Z,93418.31
2023-05-02T19:22:27.626Z,93420.53
2023-05-02T19:25:12.917Z,93419.03
2023-05-02T19:27:57.669Z,93418.34
2023-05-02T19:30:41.508Z,93430.44
2023-05-02T19:33:24.617Z,93432.88
2023-05-02T19:36:09.693Z,93442.38
2023-05-02T19:38:54.218Z,93437.09
2023-05-02T19:41:38.438Z,93432.75
2023-05-02T19:44:22.666Z,93435.88
2023-05-02T19:47:06.458Z,93430.59
2023-05-02T19:49:51.440Z,93434.53
2023-05-02T19:52:34.706Z,93443.72
2023-05-02T19:55:18.699Z,93450.66
2023-05-02T19:58:03.755Z,93448.72
2023-05-02T20:00:50.080Z,93445.75
2023-05-02T20:03:35.016Z,93447.91
2023-05-02T20:06:18.301Z,93445.09
2023-05-02T20:09:01.288Z,93451.16
2023-05-02T20:11:44.175Z,93450.63
2023-05-02T20:14:27.122Z,93452.25
2023-05-02T20:17:11.940Z,93454.81
2023-05-02T20:19:55.006Z,93453.34
2023-05-02T20:22:38.153Z,93459.69
2023-05-02T20:25:22.571Z,93452.13
2023-05-02T20:28:06.160Z,93454.28
2023-05-02T20:30:49.372Z,93457.41
2023-05-02T20:33:43.814Z,93458.88
2023-05-02T20:36:30.903Z,93456.84
2023-05-02T20:39:14.315Z,93462.75
2023-05-02T20:41:58.291Z,93467.88
2023-05-02T20:44:42.066Z,93463.81
2023-05-02T20:47:26.298Z,93466.25
2023-05-02T20:50:11.645Z,93466.13
2023-05-02T20:52:55.021Z,93460.72
2023-05-02T20:55:37.900Z,93461.53
2023-05-02T20:58:21.684Z,93461.38
2023-05-02T21:01:04.664Z,93465.72
2023-05-02T21:03:47.714Z,93463.16
2023-05-02T21:06:32.701Z,93465.72
2023-05-02T21:09:16.404Z,93465.72
2023-05-02T21:11:59.242Z,93470.19
2023-05-02T21:14:42.182Z,93467.47
2023-05-02T21:17:26.276Z,93465.88
2023-05-02T21:20:11.111Z,93460.72
2023-05-02T21:22:55.237Z,93463.56
2023-05-02T21:25:38.768Z,93469.38
2023-05-02T21:28:21.635Z,93475.47
2023-05-02T21:31:04.727Z,93473.81
2023-05-02T21:33:47.631Z,93473.94
2023-05-02T21:36:30.732Z,93478.41
2023-05-02T21:39:16.673Z,93471.78
2023-05-02T21:42:01.475Z,93479.03
2023-05-02T21:44:44.370Z,93477.56
2023-05-02T21:47:27.278Z,93485.25
2023-05-02T21:50:10.465Z,93480.28
2023-05-02T21:52:53.759Z,93487.03
2023-05-02T21:55:39.659Z,93484.47
2023-05-02T21:58:22.699Z,93498.25
2023-05-02T22:01:05.836Z,93489.03
2023-05-02T22:03:48.708Z,93479.84
2023-05-02T22:06:31.650Z,93484.28
2023-05-02T22:09:14.604Z,93490.38
2023-05-02T22:11:59.006Z,93483.59
2023-05-02T22:14:45.702Z,93492.50
2023-05-02T22:17:28.947Z,93484.78
2023-05-02T22:20:13.369Z,93486.47
2023-05-02T22:22:56.240Z,93479.53
2023-05-02T22:25:41.881Z,93478.53
2023-05-02T22:28:26.955Z,93484.31
2023-05-02T22:31:09.917Z,93480.91
2023-05-02T22:33:52.785Z,93488.38
2023-05-02T22:36:36.249Z,93484.72
2023-05-02T22:39:19.216Z,93484.63
2023-05-02T22:42:03.266Z,93475.72
2023-05-02T22:44:54.012Z,93481.66
2023-05-02T22:47:37.908Z,93476.97
2023-05-02T22:50:21.611Z,93475.09
2023-05-02T22:53:04.772Z,93478.34
2023-05-02T22:55:47.662Z,93479.94
2023-05-02T22:58:30.581Z,93482.50
2023-05-02T23:01:15.128Z,93478.69
2023-05-02T23:03:58.065Z,93479.53
2023-05-02T23:06:41.742Z,93477.50
2023-05-02T23:09:24.715Z,93481.34
2023-05-02T23:12:07.691Z,93484.34
2023-05-02T23:14:50.621Z,93483.16
2023-05-02T23:17:35.200Z,93479.38
2023-05-02T23:20:20.404Z,93484.94
2023-05-02T23:23:04.858Z,93481.28
2023-05-02T23:25:48.393Z,93482.91
2023-05-02T23:28:31.381Z,93482.81
2023-05-02T23:31:14.505Z,93473.34
2023-05-02T23:33:59.110Z,93471.03
2023-05-02T23:36:42.064Z,93466.03
2023-05-02T23:39:25.271Z,93465.75
2023-05-02T23:42:08.242Z,93475.56
2023-05-02T23:44:51.145Z,93465.56
2023-05-02T23:47:34.039Z,93474.19
2023-05-02T23:50:18.552Z,93469.22
2023-05-02T23:53:01.445Z,93471.91
2023-05-02T23:55:44.417Z,93466.78
2023-05-02T23:58:27.335Z,93467.72
